createdAt,value
2023-12-10T00:01:41.752Z,100081.13
2023-12-10T00:04:29.896Z,100091.53
2023-12-10T00:07:15.946Z,100074.69
2023-12-10T00:10:01.450Z,100066.34
2023-12-10T00:12:47.065Z,100059.81
2023-12-10T00:15:33.105Z,100055.03
2023-12-10T00:18:18.710Z,100058.03
2023-12-10T00:21:05.006Z,100075.44
2023-12-10T00:23:50.777Z,100062.50
2023-12-10T00:26:36.275Z,100062.94
2023-12-10T00:29:21.824Z,100070.56
2023-12-10T00:32:07.591Z,100077.56
2023-12-10T00:34:53.543Z,100092.81
2023-12-10T00:37:39.821Z,100080.69
2023-12-10T00:40:25.576Z,100082.56
2023-12-10T00:43:13.841Z,100074.59
2023-12-10T00:45:59.387Z,100071.97
2023-12-10T00:48:45.015Z,100068.97
2023-12-10T00:51:31.075Z,100066.81
2023-12-10T00:54:19.612Z,100066.25
2023-12-10T00:57:05.268Z,100063.81
2023-12-10T00:59:51.085Z,100057.81
2023-12-10T01:02:36.698Z,100060.47
2023-12-10T01:05:22.107Z,100067.19
2023-12-10T01:08:07.899Z,100059.88
2023-12-10T01:10:53.750Z,100055.94
2023-12-10T01:13:39.071Z,100063.31
2023-12-10T01:16:24.756Z,100054.84
2023-12-10T01:19:10.583Z,100049.91
2023-12-10T01:21:56.163Z,100048.91
2023-12-10T01:24:41.548Z,100048.34
2023-12-10T01:27:29.679Z,100061.72
2023-12-10T01:30:15.696Z,100061.69
2023-12-10T01:33:01.356Z,100063.94
2023-12-10T01:35:47.045Z,100061.94
2023-12-10T01:38:33.357Z,100046.22
2023-12-10T01:41:22.767Z,100046.50
2023-12-10T01:44:10.875Z,100045.84
2023-12-10T01:46:57.731Z,100046.81
2023-12-10T01:49:43.598Z,100053.22
2023-12-10T01:52:29.823Z,100045.25
2023-12-10T01:55:18.035Z,100041.38
2023-12-10T01:58:05.308Z,100043.16
2023-12-10T02:00:51.229Z,100045.66
2023-12-10T02:03:37.513Z,100052.97
2023-12-10T02:06:25.897Z,100052.38
2023-12-10T02:09:14.114Z,100042.00
2023-12-10T02:12:00.115Z,100049.97
2023-12-10T02:14:45.989Z,100047.50
2023-12-10T02:17:31.608Z,100048.66
2023-12-10T02:20:19.043Z,100053.22
2023-12-10T02:23:43.313Z,100041.75
2023-12-10T02:26:29.302Z,100031.59
2023-12-10T02:29:14.950Z,100022.03
2023-12-10T02:32:00.713Z,100023.75
2023-12-10T02:34:46.645Z,100004.63
2023-12-10T02:37:32.801Z,100012.19
2023-12-10T02:40:18.708Z,100009.41
2023-12-10T02:43:05.026Z,100006.25
2023-12-10T02:45:51.085Z,100014.06
2023-12-10T02:48:37.029Z,100009.47
2023-12-10T02:51:23.015Z,100020.81
2023-12-10T02:54:08.709Z,100016.75
2023-12-10T02:56:54.097Z,100014.66
2023-12-10T02:59:39.563Z,100003.50
2023-12-10T03:02:25.128Z,99996.97
2023-12-10T03:05:10.709Z,100003.44
2023-12-10T03:07:56.451Z,99998.59
2023-12-10T03:10:41.968Z,100005.13
2023-12-10T03:13:27.609Z,100006.72
2023-12-10T03:16:13.030Z,100010.50
2023-12-10T03:18:58.600Z,100014.31
2023-12-10T03:21:44.607Z,100006.78
2023-12-10T03:24:30.103Z,100011.19
2023-12-10T03:27:15.782Z,100000.47
2023-12-10T03:30:01.472Z,100004.50
2023-12-10T03:32:47.016Z,100007.00
2023-12-10T03:35:32.516Z,100007.94
2023-12-10T03:38:18.019Z,100004.78
2023-12-10T03:41:03.929Z,100001.03
2023-12-10T03:43:51.705Z,99998.94
2023-12-10T03:46:37.260Z,100010.22
2023-12-10T03:49:22.790Z,100006.91
2023-12-10T03:52:08.230Z,99998.88
2023-12-10T03:54:53.676Z,100010.38
2023-12-10T03:57:39.791Z,100003.66
2023-12-10T04:00:25.348Z,100011.53
2023-12-10T04:03:11.074Z,100005.69
2023-12-10T04:05:56.629Z,100007.56
2023-12-10T04:08:42.095Z,100001.25
2023-12-10T04:11:27.602Z,100004.25
2023-12-10T04:14:13.914Z,100012.84
2023-12-10T04:16:59.810Z,100004.19
2023-12-10T04:19:45.587Z,100005.94
2023-12-10T04:22:31.683Z,100005.81
2023-12-10T04:25:20.445Z,100002.66
2023-12-10T04:28:08.181Z,99997.44
2023-12-10T04:30:54.210Z,99996.53
2023-12-10T04:33:40.507Z,100007.19
2023-12-10T04:36:26.496Z,99997.28
2023-12-10T04:39:16.748Z,100000.16
2023-12-10T04:42:02.680Z,99996.53
2023-12-10T04:44:48.283Z,99995.47
2023-12-10T04:47:37.323Z,99990.66
2023-12-10T04:50:23.273Z,99998.16
2023-12-10T04:53:08.916Z,99991.84
2023-12-10T04:55:54.372Z,99989.22
2023-12-10T04:58:39.942Z,99995.63
2023-12-10T05:01:25.682Z,99998.59
2023-12-10T05:04:11.698Z,99997.53
2023-12-10T05:06:57.747Z,99995.63
2023-12-10T05:09:43.253Z,100000.75
2023-12-10T05:12:29.740Z,100001.81
2023-12-10T05:15:16.815Z,100003.97
2023-12-10T05:18:05.962Z,99996.91
2023-12-10T05:20:55.059Z,100002.50
2023-12-10T05:23:41.124Z,99999.78
2023-12-10T05:26:26.785Z,99995.72
2023-12-10T05:29:12.313Z,100000.88
2023-12-10T05:31:58.012Z,99987.50
2023-12-10T05:34:43.747Z,99992.66
2023-12-10T05:37:29.655Z,99995.69
2023-12-10T05:40:15.199Z,100002.19
2023-12-10T05:43:00.773Z,100005.25
2023-12-10T05:45:46.799Z,100014.75
2023-12-10T05:48:32.952Z,100002.25
2023-12-10T05:51:18.660Z,100012.91
2023-12-10T05:54:04.413Z,100017.69
2023-12-10T05:56:49.800Z,100032.63
2023-12-10T05:59:35.228Z,100024.94
2023-12-10T06:02:23.115Z,100026.72
2023-12-10T06:05:12.620Z,100023.66
2023-12-10T06:07:58.744Z,100013.22
2023-12-10T06:10:44.222Z,100016.88
2023-12-10T06:13:29.509Z,100019.59
2023-12-10T06:16:15.067Z,100033.03
2023-12-10T06:19:00.840Z,100044.00
2023-12-10T06:21:46.758Z,100046.84
2023-12-10T06:24:32.365Z,100038.91
2023-12-10T06:27:18.096Z,100044.81
2023-12-10T06:30:04.588Z,100044.97
2023-12-10T06:32:52.791Z,100043.75
2023-12-10T06:35:39.271Z,100043.50
2023-12-10T06:38:24.645Z,100047.72
2023-12-10T06:41:13.097Z,100048.91
2023-12-10T06:43:58.515Z,100044.47
2023-12-10T06:46:44.009Z,100047.28
2023-12-10T06:49:29.876Z,100057.28
2023-12-10T06:52:18.638Z,100038.53
2023-12-10T06:55:04.852Z,100042.34
2023-12-10T06:57:50.772Z,100053.94
2023-12-10T07:00:36.335Z,100055.88
2023-12-10T07:03:22.255Z,100058.34
2023-12-10T07:06:08.316Z,100076.72
2023-12-10T07:08:53.755Z,100069.84
2023-12-10T07:11:39.377Z,100069.81
2023-12-10T07:14:24.894Z,100063.63
2023-12-10T07:17:10.679Z,100070.34
2023-12-10T07:19:58.729Z,100069.00
2023-12-10T07:22:44.555Z,100062.66
2023-12-10T07:25:30.396Z,100056.44
2023-12-10T07:28:15.931Z,100068.72
2023-12-10T07:31:01.580Z,100071.97
2023-12-10T07:33:49.703Z,100070.47
2023-12-10T07:36:37.610Z,100079.31
2023-12-10T07:39:24.412Z,100084.97
2023-12-10T07:42:09.881Z,100086.44
2023-12-10T07:44:55.942Z,100092.81
2023-12-10T07:47:41.704Z,100089.28
2023-12-10T07:50:28.883Z,100088.19
2023-12-10T07:53:15.267Z,100085.34
2023-12-10T07:56:01.212Z,100088.47
2023-12-10T07:58:46.888Z,100094.44
2023-12-10T08:01:32.684Z,100093.53
2023-12-10T08:04:18.580Z,100091.00
2023-12-10T08:07:04.190Z,100082.09
2023-12-10T08:09:49.775Z,100085.34
2023-12-10T08:12:36.332Z,100086.50
2023-12-10T08:15:22.757Z,100086.47
2023-12-10T08:18:09.232Z,100098.03
2023-12-10T08:20:55.697Z,100093.84
2023-12-10T08:23:41.796Z,100094.84
2023-12-10T08:26:27.824Z,100102.94
2023-12-10T08:29:13.420Z,100117.03
2023-12-10T08:31:58.826Z,100102.09
2023-12-10T08:34:44.752Z,100109.50
2023-12-10T08:37:31.064Z,100112.22
2023-12-10T08:40:17.977Z,100124.97
2023-12-10T08:43:03.827Z,100118.16
2023-12-10T08:45:49.382Z,100127.78
2023-12-10T08:48:35.153Z,100130.81
2023-12-10T08:51:20.989Z,100123.94
2023-12-10T08:54:06.455Z,100132.50
2023-12-10T08:56:52.155Z,100128.72
2023-12-10T08:59:37.773Z,100121.84
2023-12-10T09:02:23.382Z,100126.41
2023-12-10T09:05:09.865Z,100132.66
2023-12-10T09:07:55.636Z,100124.84
2023-12-10T09:10:41.125Z,100121.28
2023-12-10T09:13:27.987Z,100116.97
2023-12-10T09:16:13.527Z,100110.69
2023-12-10T09:18:59.287Z,100118.69
2023-12-10T09:21:46.418Z,100120.31
2023-12-10T09:24:32.545Z,100121.16
2023-12-10T09:27:18.499Z,100126.56
2023-12-10T09:30:04.593Z,100128.09
2023-12-10T09:32:50.536Z,100131.06
2023-12-10T09:35:36.765Z,100129.00
2023-12-10T09:38:22.518Z,100118.66
2023-12-10T09:41:08.387Z,100117.03
2023-12-10T09:43:54.278Z,100125.84
2023-12-10T09:46:40.556Z,100119.34
2023-12-10T09:49:28.827Z,100111.47
2023-12-10T09:52:15.270Z,100113.38
2023-12-10T09:55:03.711Z,100107.53
2023-12-10T09:57:50.131Z,100109.31
2023-12-10T10:00:36.029Z,100119.03
2023-12-10T10:03:22.467Z,100117.06
2023-12-10T10:06:09.618Z,100127.38
2023-12-10T10:08:57.838Z,100118.81
2023-12-10T10:11:49.316Z,100119.13
2023-12-10T10:14:36.934Z,100111.31
2023-12-10T10:17:32.642Z,100107.28
2023-12-10T10:20:18.476Z,100111.53
2023-12-10T10:23:05.319Z,100103.66
2023-12-10T10:25:51.922Z,100112.13
2023-12-10T10:28:38.536Z,100114.69
2023-12-10T10:31:24.673Z,100114.03
2023-12-10T10:34:10.694Z,100103.81
2023-12-10T10:36:56.457Z,100100.03
2023-12-10T10:39:47.680Z,100097.94
2023-12-10T10:42:36.280Z,100093.25
2023-12-10T10:45:22.154Z,100114.63
2023-12-10T10:48:09.449Z,100102.59
2023-12-10T10:50:57.049Z,100108.13
2023-12-10T10:53:43.381Z,100102.84
2023-12-10T10:56:29.078Z,100108.19
2023-12-10T10:59:32.710Z,100117.00
2023-12-10T11:02:20.582Z,100113.47
2023-12-10T11:05:06.967Z,100119.03
2023-12-10T11:07:52.546Z,100122.41
2023-12-10T11:10:51.207Z,100121.66
2023-12-10T11:13:48.456Z,100118.59
2023-12-10T11:16:37.984Z,100098.16
2023-12-10T11:19:24.282Z,100108.56
2023-12-10T11:22:10.462Z,100105.78
2023-12-10T11:25:00.133Z,100104.31
2023-12-10T11:27:45.862Z,100103.41
2023-12-10T11:30:31.648Z,100108.91
2023-12-10T11:33:17.984Z,100092.41
2023-12-10T11:36:33.044Z,100104.03
2023-12-10T11:39:15.239Z,100100.34
2023-12-10T11:42:06.392Z,100101.91
2023-12-10T11:44:52.927Z,100110.00
2023-12-10T11:47:38.720Z,100110.09
2023-12-10T11:50:24.754Z,100099.28
2023-12-10T11:53:10.341Z,100110.16
2023-12-10T11:55:56.496Z,100097.94
2023-12-10T11:58:46.252Z,100099.06
2023-12-10T12:01:33.006Z,100114.34
2023-12-10T12:04:19.669Z,100117.31
2023-12-10T12:07:05.555Z,100118.00
2023-12-10T12:09:53.214Z,100133.59
2023-12-10T12:12:47.529Z,100115.56
2023-12-10T12:15:35.009Z,100116.97
2023-12-10T12:18:26.416Z,100116.69
2023-12-10T12:21:12.417Z,100118.44
2023-12-10T12:23:58.106Z,100121.69
2023-12-10T12:26:51.094Z,100113.09
2023-12-10T12:29:37.010Z,100115.94
2023-12-10T12:32:29.527Z,100128.63
2023-12-10T12:35:20.571Z,100124.53
2023-12-10T12:38:06.200Z,100127.56
2023-12-10T12:40:52.263Z,100132.69
2023-12-10T12:43:37.920Z,100133.28
2023-12-10T12:46:23.793Z,100128.59
2023-12-10T12:49:11.375Z,100119.00
2023-12-10T12:51:57.027Z,100114.44
2023-12-10T12:54:43.599Z,100123.31
2023-12-10T12:57:30.041Z,100115.69
2023-12-10T13:00:18.539Z,100115.56
2023-12-10T13:03:04.592Z,100125.13
2023-12-10T13:05:50.487Z,100121.47
2023-12-10T13:08:36.092Z,100113.34
2023-12-10T13:11:21.529Z,100118.41
2023-12-10T13:14:07.299Z,100107.31
2023-12-10T13:16:53.775Z,100122.41
2023-12-10T13:19:41.783Z,100123.19
2023-12-10T13:22:27.671Z,100114.00
2023-12-10T13:25:13.268Z,100110.19
2023-12-10T13:27:59.291Z,100110.47
2023-12-10T13:30:45.282Z,100118.16
2023-12-10T13:33:31.066Z,100119.44
2023-12-10T13:36:17.149Z,100116.34
2023-12-10T13:39:05.529Z,100119.03
2023-12-10T13:41:51.113Z,100117.47
2023-12-10T13:44:36.787Z,100108.22
2023-12-10T13:47:22.309Z,100112.13
2023-12-10T13:50:08.266Z,100116.59
2023-12-10T13:52:54.095Z,100116.28
2023-12-10T13:55:42.096Z,100113.53
2023-12-10T13:58:30.335Z,100119.75
2023-12-10T14:01:17.031Z,100128.50
2023-12-10T14:04:03.819Z,100128.19
2023-12-10T14:06:49.584Z,100116.97
2023-12-10T14:09:37.818Z,100114.28
2023-12-10T14:12:23.647Z,100121.09
2023-12-10T14:15:10.302Z,100120.81
2023-12-10T14:17:56.165Z,100132.84
2023-12-10T14:20:42.204Z,100126.34
2023-12-10T14:23:28.269Z,100130.75
2023-12-10T14:26:14.325Z,100126.97
2023-12-10T14:29:00.045Z,100129.81
2023-12-10T14:31:45.789Z,100122.19
2023-12-10T14:34:31.555Z,100125.03
2023-12-10T14:37:17.503Z,100129.66
2023-12-10T14:40:06.331Z,100127.78
2023-12-10T14:42:52.040Z,100127.31
2023-12-10T14:45:37.611Z,100127.78
2023-12-10T14:48:23.766Z,100125.97
2023-12-10T14:51:10.023Z,100115.13
2023-12-10T14:53:56.077Z,100113.56
2023-12-10T14:56:42.055Z,100110.44
2023-12-10T14:59:27.369Z,100112.72
2023-12-10T15:02:13.241Z,100119.28
2023-12-10T15:04:58.923Z,100114.19
2023-12-10T15:07:44.561Z,100112.97
2023-12-10T15:10:31.959Z,100105.63
2023-12-10T15:13:17.708Z,100113.13
2023-12-10T15:16:03.530Z,100105.16
2023-12-10T15:18:49.487Z,100103.81
2023-12-10T15:21:35.406Z,100107.19
2023-12-10T15:24:20.916Z,100121.91
2023-12-10T15:27:06.977Z,100109.88
2023-12-10T15:29:52.895Z,100106.03
2023-12-10T15:32:39.679Z,100103.06
2023-12-10T15:35:25.273Z,100092.84
2023-12-10T15:38:10.787Z,100096.81
2023-12-10T15:40:56.316Z,100095.97
2023-12-10T15:43:41.773Z,100087.00
2023-12-10T15:46:27.765Z,100093.91
2023-12-10T15:49:13.522Z,100091.47
2023-12-10T15:52:01.334Z,100095.31
2023-12-10T15:54:47.145Z,100095.31
2023-12-10T15:57:34.667Z,100097.22
2023-12-10T16:00:21.076Z,100099.22
2023-12-10T16:03:09.127Z,100103.75
2023-12-10T16:05:54.910Z,100095.31
2023-12-10T16:08:42.134Z,100092.97
2023-12-10T16:11:27.921Z,100096.34
2023-12-10T16:14:13.498Z,100091.41
2023-12-10T16:16:59.068Z,100091.94
2023-12-10T16:19:45.057Z,100086.25
2023-12-10T16:22:31.146Z,100085.34
2023-12-10T16:25:19.276Z,100087.13
2023-12-10T16:28:06.002Z,100084.78
2023-12-10T16:30:52.136Z,100075.72
2023-12-10T16:33:38.647Z,100071.28
2023-12-10T16:36:27.419Z,100073.97
2023-12-10T16:39:12.925Z,100077.03
2023-12-10T16:41:58.615Z,100076.69
2023-12-10T16:44:44.062Z,100084.41
2023-12-10T16:47:30.016Z,100079.75
2023-12-10T16:50:16.612Z,100065.03
2023-12-10T16:53:02.303Z,100062.72
2023-12-10T16:55:50.268Z,100066.25
2023-12-10T16:58:36.085Z,100058.28
2023-12-10T17:01:21.942Z,100062.69
2023-12-10T17:04:07.918Z,100059.47
2023-12-10T17:06:53.966Z,100053.91
2023-12-10T17:09:41.169Z,100062.09
2023-12-10T17:12:27.254Z,100059.38
2023-12-10T17:15:13.022Z,100062.28
2023-12-10T17:17:59.046Z,100051.44
2023-12-10T17:20:44.835Z,100056.28
2023-12-10T17:23:30.426Z,100051.91
2023-12-10T17:26:19.113Z,100042.91
2023-12-10T17:29:04.771Z,100050.50
2023-12-10T17:31:50.360Z,100049.75
2023-12-10T17:34:41.257Z,100040.66
2023-12-10T17:37:30.535Z,100039.09
2023-12-10T17:40:16.617Z,100034.13
2023-12-10T17:43:02.530Z,100033.75
2023-12-10T17:45:48.433Z,100031.63
2023-12-10T17:48:34.073Z,100033.66
2023-12-10T17:51:20.143Z,100033.88
2023-12-10T17:54:06.376Z,100022.38
2023-12-10T17:56:52.496Z,100021.75
2023-12-10T17:59:38.301Z,100017.31
2023-12-10T18:02:23.983Z,100005.38
2023-12-10T18:05:11.301Z,100009.34
2023-12-10T18:07:56.975Z,100002.63
2023-12-10T18:10:42.760Z,99997.44
2023-12-10T18:13:28.278Z,99997.94
2023-12-10T18:16:21.323Z,99995.28
2023-12-10T18:19:07.240Z,99991.72
2023-12-10T18:21:52.863Z,99990.66
2023-12-10T18:24:38.693Z,99986.28
2023-12-10T18:27:25.842Z,99975.84
2023-12-10T18:30:12.066Z,99969.50
2023-12-10T18:33:00.922Z,99971.66
2023-12-10T18:35:47.153Z,99962.50
2023-12-10T18:38:33.877Z,99950.94
2023-12-10T18:41:19.620Z,99962.94
2023-12-10T18:44:06.177Z,99950.47
2023-12-10T18:46:52.304Z,99950.63
2023-12-10T18:49:38.034Z,99950.16
2023-12-10T18:52:24.278Z,99949.72
2023-12-10T18:55:09.916Z,99950.44
2023-12-10T18:57:55.593Z,99939.50
2023-12-10T19:00:42.737Z,99936.97
2023-12-10T19:03:31.386Z,99944.88
2023-12-10T19:06:17.550Z,99942.50
2023-12-10T19:09:04.864Z,99936.59
2023-12-10T19:11:50.811Z,99929.66
2023-12-10T19:14:36.512Z,99929.41
2023-12-10T19:17:22.143Z,99918.81
2023-12-10T19:20:21.798Z,99920.53
2023-12-10T19:23:07.441Z,99917.78
2023-12-10T19:25:57.560Z,99925.41
2023-12-10T19:28:43.288Z,99918.22
2023-12-10T19:31:29.185Z,99904.47
2023-12-10T19:34:14.890Z,99896.75
2023-12-10T19:37:00.807Z,99893.00
2023-12-10T19:39:46.397Z,99896.69
2023-12-10T19:42:32.255Z,99900.00
2023-12-10T19:45:18.827Z,99892.81
2023-12-10T19:48:04.909Z,99903.59
2023-12-10T19:50:50.894Z,99886.03
2023-12-10T19:53:36.882Z,99877.25
2023-12-10T19:56:41.512Z,99880.03
2023-12-10T19:59:28.149Z,99874.78
2023-12-10T20:02:13.908Z,99878.56
2023-12-10T20:04:59.671Z,99880.13
2023-12-10T20:07:45.424Z,99881.88
2023-12-10T20:10:32.988Z,99866.13
2023-12-10T20:13:18.538Z,99865.25
2023-12-10T20:16:05.564Z,99857.34
2023-12-10T20:18:51.484Z,99853.25
2023-12-10T20:21:37.261Z,99843.66
2023-12-10T20:24:31.054Z,99847.75
2023-12-10T20:27:23.143Z,99836.94
2023-12-10T20:30:10.569Z,99839.31
2023-12-10T20:32:56.691Z,99825.00
2023-12-10T20:35:42.591Z,99822.88
2023-12-10T20:38:28.383Z,99821.63
2023-12-10T20:41:14.549Z,99811.78
2023-12-10T20:44:03.289Z,99804.88
2023-12-10T20:46:49.176Z,99798.16
2023-12-10T20:49:35.188Z,99806.31
2023-12-10T20:52:22.022Z,99799.91
2023-12-10T20:55:08.334Z,99807.03
2023-12-10T20:57:54.197Z,99796.59
2023-12-10T21:00:40.384Z,99797.50
2023-12-10T21:03:26.319Z,99792.66
2023-12-10T21:06:13.233Z,99788.88
2023-12-10T21:08:59.669Z,99790.84
2023-12-10T21:11:48.565Z,99787.13
2023-12-10T21:14:34.634Z,99778.25
2023-12-10T21:17:20.392Z,99776.63
2023-12-10T21:20:07.759Z,99771.88
2023-12-10T21:22:56.638Z,99771.72
2023-12-10T21:25:42.298Z,99767.53
2023-12-10T21:28:27.869Z,99761.59
2023-12-10T21:31:13.479Z,99759.59
2023-12-10T21:34:01.765Z,99756.25
2023-12-10T21:36:47.552Z,99754.69
2023-12-10T21:39:33.289Z,99753.00
2023-12-10T21:42:18.986Z,99749.06
2023-12-10T21:45:05.491Z,99734.47
2023-12-10T21:47:52.916Z,99737.63
2023-12-10T21:50:38.903Z,99731.75
2023-12-10T21:53:24.750Z,99740.16
2023-12-10T21:56:10.608Z,99731.69
2023-12-10T21:58:56.397Z,99733.28
2023-12-10T22:01:42.083Z,99735.88
2023-12-10T22:04:28.098Z,99729.16
2023-12-10T22:07:14.264Z,99727.16
2023-12-10T22:10:00.593Z,99728.03
2023-12-10T22:12:46.416Z,99722.97
2023-12-10T22:15:32.651Z,99728.34
2023-12-10T22:18:19.056Z,99719.59
2023-12-10T22:21:07.730Z,99717.03
2023-12-10T22:23:53.813Z,99709.53
2023-12-10T22:26:41.529Z,99717.50
2023-12-10T22:29:26.997Z,99717.84
2023-12-10T22:32:15.514Z,99714.91
2023-12-10T22:35:03.497Z,99709.13
2023-12-10T22:37:49.529Z,99704.56
2023-12-10T22:40:35.083Z,99700.50
2023-12-10T22:43:25.565Z,99699.13
2023-12-10T22:46:11.497Z,99689.91
2023-12-10T22:48:58.034Z,99690.59
2023-12-10T22:51:45.016Z,99685.66
2023-12-10T22:54:30.513Z,99698.22
2023-12-10T22:57:16.379Z,99696.75
2023-12-10T23:00:02.473Z,99688.91
2023-12-10T23:02:50.955Z,99687.50
2023-12-10T23:05:37.349Z,99679.53
2023-12-10T23:08:23.511Z,99682.00
2023-12-10T23:11:09.424Z,99684.00
2023-12-10T23:13:55.033Z,99674.16
2023-12-10T23:16:42.262Z,99675.38
2023-12-10T23:19:28.614Z,99669.94
2023-12-10T23:22:14.860Z,99665.25
2023-12-10T23:25:00.808Z,99662.63
2023-12-10T23:27:46.679Z,99650.25
2023-12-10T23:30:38.552Z,99657.41
2023-12-10T23:33:31.265Z,99645.00
2023-12-10T23:36:17.273Z,99646.13
2023-12-10T23:39:03.119Z,99643.06
2023-12-10T23:41:48.658Z,99640.44
2023-12-10T23:44:34.547Z,100425.38
2023-12-10T23:47:20.956Z,100609.13
2023-12-10T23:50:08.377Z,62747.53
2023-12-10T23:52:54.704Z,62747.53
2023-12-10T23:55:40.302Z,62747.53
2023-12-10T23:58:28.925Z,62747.53
